Landels-Hill Big Creek Reserve Entrance, California Weather observations

Data are for 10 minute period ending at time listed.
 Day   Time   Solar   Ave.   Ave.  Ave.  Vector  Max.   Baro.   Total    
  of    of     Rad.   Air    Rel.  Wind   Wind   Wind  Press.  Precip.   
Year   Day            Temp.  Hum.  Speed  Dir.   Gust                    
2014   (PST)  Kw/m2    F      %     mph   deg.    mph    mb.     in.     
-------------------------------------------------------------------------
 304    4:00   0.00   60.2    85    1.5    14     4.3   1008.9    0.00 
 304    4:10   0.00   59.8    85    2.3    33     4.2   1008.9    0.00 
 304    4:20   0.00   59.4    85    2.0    30     3.8   1008.9    0.00 
 304    4:30   0.00   59.0    86    2.4    11     5.3   1009.0    0.00 
 304    4:40   0.00   58.6    86    2.4    18     5.3   1009.0    0.00 
 304    4:50   0.00   58.0    87    1.9    50     4.0   1008.9    0.00 
 304    5:00   0.00   57.7    88    1.8    54     3.5   1008.9    0.00 
 304    5:10   0.00   57.3    88    2.1    39     4.8   1009.0    0.00 
 304    5:20   0.00   57.1    88    2.2    26     5.0   1009.0    0.00 
 304    5:30   0.00   56.7    89    1.9    34     3.3   1009.0    0.00 
 304    5:40   0.00   56.4    89    2.7     6     6.3   1009.1    0.00 
 304    5:50   0.00   56.3    89    2.7    42     5.1   1009.3    0.00 
 304    6:00   0.00   56.4    88    2.6    41     6.7   1009.4    0.00 
 304    6:10   0.00   56.2    88    2.5    36     5.3   1009.3    0.00 
 304    6:20   0.00   56.3    88    2.7    30     6.6   1009.5    0.00 
 304    6:30   0.00   57.0    86    1.9    40     5.7   1009.7    0.00 
 304    6:40   0.00   57.2    85    1.4    28     4.8   1009.8    0.00 
 304    6:50   0.00   57.5    84    2.4    51     5.9   1010.0    0.00 
 304    7:00   0.00   57.8    84    2.0    22     4.4   1010.1    0.00 
 304    7:10   0.01   58.0    84    1.2    35     3.7   1010.1    0.00 
 304    7:20   0.01   58.0    85    1.2   359     4.0   1010.2    0.00 
 304    7:30   0.01   58.3    87    0.9   352     2.9   1010.2    0.00 
 304    7:40   0.01   59.5    90    1.2   331     3.2   1010.4    0.00 
 304    7:50   0.03   59.1    90    1.4   305     4.1   1010.5    0.00 
 304    8:00   0.05   58.9    91    1.8   320     4.9   1010.5    0.00 
 304    8:10   0.06   59.0    90    0.7     0     2.8   1010.6    0.00 
 304    8:20   0.04   59.1    90    1.4   359     2.9   1010.6    0.00 
 304    8:30   0.08   59.4    90    0.7     5     2.6   1010.4    0.00 
 304    8:40   0.10   60.2    90    0.6   354     2.1   1010.3    0.00 
 304    8:50   0.10   60.9    90    0.1   350     1.1   1010.2    0.00 
 304    9:00   0.12   61.5    85    1.3   281     6.1   1010.1    0.00 
 304    9:10   0.13   62.3    79    1.1   267     3.5   1009.9    0.00 
 304    9:20   0.14   63.3    77    1.1   306     4.2   1009.7    0.00 
 304    9:30   0.14   63.4    76    1.9   286     4.9   1009.4    0.00 
 304    9:40   0.16   64.0    73    0.9   272     4.1   1009.2    0.00 
 304    9:50   0.13   65.1    71    0.6   275     2.6   1009.0    0.00 
 304   10:00   0.10   65.3    72    2.5   317     5.4   1008.8    0.00 
 304   10:10   0.40   65.3    72    3.1   299    10.5   1008.4    0.00 
 304   10:20   0.62   66.1    69    4.7   314     9.9   1008.3    0.00 
 304   10:30   0.61   66.3    68    4.7   320    10.4   1008.6    0.00 
 304   10:40   0.62   67.1    67    4.4   332     8.6   1008.8    0.00 
 304   10:50   0.42   67.4    66    3.9   338     7.9   1008.8    0.00 
 304   11:00   0.22   66.7    65    3.8   340     8.0   1008.8    0.00 
 304   11:10   0.17   65.2    70    3.7   342     8.8   1008.7    0.00 
 304   11:20   0.15   64.5    72    3.1   330     6.7   1008.4    0.00 
 304   11:30   0.12   64.0    75    1.9   340     5.2   1008.2    0.00 
 304   11:40   0.10   63.8    76    2.4   351     6.1   1008.0    0.00 
 304   11:50   0.09   63.0    79    3.0   331     6.8   1007.7    0.00 
 304   12:00   0.08   62.7    79    3.1   304     7.7   1007.4    0.00 
 304   12:10   0.07   62.9    77    2.9   317     8.6   1007.1    0.00 
 304   12:20   0.08   63.0    78    2.6   327     5.3   1007.0    0.00 
 304   12:30   0.08   62.7    82    2.3   314     6.5   1006.9    0.00 
 304   12:40   0.08   62.7    80    1.9   297     5.8   1006.6    0.00 
 304   12:50   0.09   62.8    78    2.3   293     9.2   1006.4    0.00 
 304   13:00   0.07   63.2    78    2.5   333     5.6   1006.3    0.00 
 304   13:10   0.07   62.6    81    2.6   334     6.1   1006.3    0.00 
 304   13:20   0.07   62.2    84    2.7   333     6.5   1006.2    0.00 
 304   13:30   0.05   61.6    86    2.0   311     4.5   1006.1    0.00 
 304   13:40   0.04   61.2    88    3.1   284    10.2   1006.0    0.00 
 304   13:50   0.07   61.1    90    0.9   316     3.6   1005.8    0.01 
 304   14:00   0.04   60.9    90    1.6   347     3.9   1005.9    0.01 
 304   14:10   0.01   60.6    91    1.1   296     3.7   1006.0    0.04 
 304   14:20   0.01   60.4    92    1.1   338     3.6   1006.1    0.10 
 304   14:30   0.01   60.3    93    0.3   315     1.5   1006.0    0.05 
 304   14:40   0.01   60.2    94    2.0   292     6.2   1006.0    0.04 
 304   14:50   0.01   59.8    94    1.3   278     6.1   1006.0    0.05 
 304   15:00   0.01   59.5    94    3.3    87     9.1   1006.0    0.22 
 304   15:10   0.01   59.0    95    6.4    96    11.2   1006.1    0.21 
 304   15:20   0.00   58.9    96    4.3    88     9.6   1006.4    0.26 
 304   15:30   0.00   58.8    96    3.3    94     8.5   1006.6    0.15 
 304   15:40   0.01   58.7    96    0.2    24     2.0   1006.4    0.03 
 304   15:50   0.01   58.6    96    0.7    79     2.8   1006.4    0.10 
 304   16:00   0.01   58.4    96    0.7    42     2.1   1006.1    0.04 
 304   16:10   0.01   58.2    96    1.4    39     3.4   1005.6    0.02 
 304   16:20   0.01   57.8    96    2.7     4     5.0   1005.8    0.02 
 304   16:30   0.01   57.5    96    2.6     7     5.9   1006.0    0.02 
 304   16:40   0.00   57.2    96    2.0   342     5.8   1005.6    0.02 
 304   16:50   0.00   56.5    95    1.9   356     4.1   1005.6    0.02 
 304   17:00   0.00   56.1    95    3.2    31     5.4   1005.9    0.02 
 304   17:10   0.00   55.8    95    3.0    13     6.6   1005.5    0.03 
 304   17:20   0.00   55.3    95    1.9    10     5.3   1004.9    0.02 
 304   17:30   0.00   55.0    95    2.0    44     4.9   1004.7    0.01 
 304   17:40   0.00   54.9    94    2.9    29     5.5   1004.9    0.01 
 304   17:50   0.00   54.8    93    2.2    24     4.5   1005.0    0.02 
 304   18:00   0.00   54.6    94    3.1    11     6.1   1004.8    0.01 
 304   18:10   0.00   54.4    94    1.8   353     5.5   1004.5    0.02 
 304   18:20   0.00   54.2    94    2.4    21     5.1   1004.1    0.01 
 304   18:30   0.00   54.1    95    1.7    19     4.8   1003.6    0.01 
 304   18:40   0.00   53.9    95    2.1     8     5.6   1002.8    0.00 
 304   18:50   0.00   53.9    95    2.2    50     4.4   1002.8    0.00 
 304   19:00   0.00   54.7    92    3.4    74     5.6   1004.7    0.01 
 304   19:10   0.00   56.0    87    2.6    81     6.9   1005.6    0.00 
 304   19:20   0.00   55.7    88    1.1    16     2.3   1006.1    0.00 
 304   19:30   0.00   54.8    91    1.3    29     3.1   1006.0    0.00 
 304   19:40   0.00   54.5    93    0.8    42     2.7   1005.9    0.00 
 304   19:50   0.00   54.5    94    1.4    41     3.5   1006.1    0.03 
 304   20:00   0.00   54.7    94    1.3    10     3.5   1005.9    0.01 
 304   20:10   0.00   54.5    94    0.5   355     3.5   1005.2    0.04 
 304   20:20   0.00   54.5    95    2.4    91     8.1   1005.0    0.00 
 304   20:30   0.00   55.0    94    6.7   101    14.9   1005.6    0.06 
 304   20:40   0.00   54.8    93    4.7   132    22.8   1005.7    0.04 
 304   20:50   0.00   54.9    93    1.1   101     3.1   1005.9    0.00 
 304   21:00   0.00   54.6    93    1.7    71     4.2   1005.8    0.01 
 304   21:10   0.00   54.4    92    1.1    48     3.1   1005.5    0.00 
 304   21:20   0.00   54.2    92    1.0    27     2.8   1005.3    0.00 
 304   21:30   0.00   53.8    93    2.4     4     5.0   1004.9    0.00 
 304   21:40   0.00   53.5    94    2.8    40     6.1   1004.3    0.00 
 304   21:50   0.00   53.5    94    2.6    26     4.7   1003.9    0.00 
 304   22:00   0.00   53.5    94    1.3    34     5.3   1004.3    0.00 
 304   22:10   0.00   53.5    94    1.8    14     4.1   1004.7    0.00 
 304   22:20   0.00   53.4    94    3.0    29     8.3   1004.7    0.00 
 304   22:30   0.00   53.2    94    2.9    22     5.5   1005.0    0.01 
 304   22:40   0.00   53.2    94    1.8    26     3.9   1005.2    0.00 
 304   22:50   0.00   53.1    94    1.8    39     3.1   1005.3    0.00 
 304   23:00   0.00   53.0    94    1.4    42     4.3   1005.5    0.00 
 304   23:10   0.00   52.9    95    1.3    56     3.8   1005.6    0.00 
 304   23:20   0.00   53.0    95    1.5    16     3.6   1005.6    0.00 
 304   23:30   0.00   53.0    96    2.1     1     5.1   1005.7    0.00 
 304   23:40   0.00   53.0    96    1.3    47     4.1   1005.8    0.00 
 304   23:50   0.00   53.0    96    1.6    37     4.2   1005.9    0.00 
 305    0:00   0.00   53.1    96    0.8    34     2.0   1005.9    0.00 
 305    0:10   0.00   53.2    96    1.2    52     3.0   1005.9    0.00 
 305    0:20   0.00   53.2    96    1.6    61     7.0   1006.1    0.02 
 305    0:30   0.00   53.6    96    3.1    67     6.1   1006.2    0.07 
 305    0:40   0.00   54.0    95    4.6   104    12.0   1006.4    0.04 
 305    0:50   0.00   53.6    94    2.1    59     6.4   1006.5    0.03 
 305    1:00   0.00   52.2    92    2.8   349     6.1   1006.4    0.02 
 305    1:10   0.00   51.4    93    3.8   356     7.0   1005.9    0.02 
 305    1:20   0.00   51.4    93    2.3    11     6.4   1005.9    0.00 
 305    1:30   0.00   51.6    93    3.3    15     7.3   1005.8    0.01 
 305    1:40   0.00   51.6    93    2.4   347     5.4   1005.9    0.01 
 305    1:50   0.00   51.5    93    2.6   330     6.2   1005.9    0.00 
 305    2:00   0.00   51.3    94    3.7   352     7.2   1006.0    0.00 
 305    2:10   0.00   51.2    95    3.9   357     8.0   1006.2    0.00 
 305    2:20   0.00   51.1    95    4.1   360     8.3   1006.2    0.00 
 305    2:30   0.00   51.1    95    4.1   352     7.3   1006.3    0.00 
 305    2:40   0.00   51.1    96    4.0     4     7.8   1006.2    0.00 
 305    2:50   0.00   51.1    96    3.7   353     7.3   1006.3    0.00 
 305    3:00   0.00   51.1    96    3.6   346     7.5   1006.3    0.00 
 305    3:10   0.00   51.1    96    3.2    14     6.5   1006.3    0.00 
 305    3:20   0.00   51.1    96    3.9   360     7.6   1006.3    0.00 
 305    3:30   0.00   51.1    96    3.6   356     5.8   1006.4    0.00 
 305    3:40   0.00   51.2    96    2.8     6     5.6   1006.8    0.01 
 305    3:50   0.00   51.2    96    2.2    24     3.7   1006.9    0.05 

Return to Big Creek Reserve Entrance graphs page.


Western Regional Climate Center,wrcc@dri.edu